createdAt,value
2023-04-11T00:00:15.455Z,99633.63
2023-04-11T00:02:44.510Z,99634.14
2023-04-11T00:05:12.007Z,99629.25
2023-04-11T00:07:38.939Z,99627.69
2023-04-11T00:10:08.155Z,99623.17
2023-04-11T00:12:35.204Z,99624.70
2023-04-11T00:15:04.626Z,99627.77
2023-04-11T00:17:32.996Z,99626.75
2023-04-11T00:20:06.893Z,99627.73
2023-04-11T00:22:34.952Z,99622.95
2023-04-11T00:25:01.855Z,99621.10
2023-04-11T00:27:29.048Z,99623.31
2023-04-11T00:29:57.527Z,99626.15
2023-04-11T00:32:24.785Z,99625.91
2023-04-11T00:34:51.732Z,99621.69
2023-04-11T00:37:20.850Z,99616.34
2023-04-11T00:39:52.414Z,99609.62
2023-04-11T00:42:19.230Z,99612.63
2023-04-11T00:44:46.557Z,99612.60
2023-04-11T00:47:13.252Z,99610.55
2023-04-11T00:49:40.349Z,99610.06
2023-04-11T00:52:07.061Z,99610.98
2023-04-11T00:54:33.928Z,99615.19
2023-04-11T00:57:02.943Z,99615.48
2023-04-11T00:59:31.180Z,99615.24
2023-04-11T01:01:58.050Z,99617.04
2023-04-11T01:04:32.198Z,99617.63
2023-04-11T01:07:03.538Z,99621.20
2023-04-11T01:09:33.528Z,99621.09
2023-04-11T01:12:03.433Z,99621.91
2023-04-11T01:14:30.757Z,99620.79
2023-04-11T01:16:57.895Z,99619.25
2023-04-11T01:19:28.256Z,99617.05
2023-04-11T01:21:55.854Z,99619.37
2023-04-11T01:24:23.794Z,99617.59
2023-04-11T01:26:51.408Z,99612.48
2023-04-11T01:29:18.237Z,99615.11
2023-04-11T01:31:45.737Z,99610.40
2023-04-11T01:34:13.698Z,99608.98
2023-04-11T01:36:41.022Z,99610.77
2023-04-11T01:39:08.584Z,99610.02
2023-04-11T01:41:35.776Z,99607.33
2023-04-11T01:44:03.883Z,99604.39
2023-04-11T01:46:31.532Z,99601.11
2023-04-11T01:48:59.827Z,99600.48
2023-04-11T01:51:27.141Z,99593.58
2023-04-11T01:53:54.166Z,99592.63
2023-04-11T01:56:21.165Z,99592.72
2023-04-11T01:58:48.178Z,99593.61
2023-04-11T02:01:18.889Z,99594.79
2023-04-11T02:03:48.188Z,99592.20
2023-04-11T02:06:15.545Z,99586.14
2023-04-11T02:08:43.744Z,99586.54
2023-04-11T02:11:11.258Z,99586.17
2023-04-11T02:13:38.433Z,99584.38
2023-04-11T02:16:11.089Z,99583.96
2023-04-11T02:18:42.223Z,99585.96
2023-04-11T02:21:09.223Z,99584.33
2023-04-11T02:23:37.920Z,99582.98
2023-04-11T02:26:06.539Z,99577.67
2023-04-11T02:28:33.351Z,99580.01
2023-04-11T02:31:00.369Z,99580.30
2023-04-11T02:33:27.813Z,99579.10
2023-04-11T02:35:54.697Z,99577.84
2023-04-11T02:38:21.428Z,99577.24
2023-04-11T02:40:48.680Z,99577.19
2023-04-11T02:43:18.268Z,99575.27
2023-04-11T02:45:45.228Z,99574.73
2023-04-11T02:48:12.435Z,99572.77
2023-04-11T02:50:43.573Z,99570.25
2023-04-11T02:53:11.367Z,99569.07
2023-04-11T02:55:43.822Z,99569.45
2023-04-11T02:58:17.016Z,99567.19
2023-04-11T03:00:43.851Z,99566.09
2023-04-11T03:03:28.380Z,99561.27
2023-04-11T03:05:56.449Z,99562.95
2023-04-11T03:08:23.409Z,99560.31
2023-04-11T03:10:56.296Z,99559.95
2023-04-11T03:13:25.588Z,99562.66
2023-04-11T03:15:52.630Z,99560.48
2023-04-11T03:18:22.444Z,99562.14
2023-04-11T03:20:50.435Z,99563.30
2023-04-11T03:23:17.961Z,99564.58
2023-04-11T03:25:47.934Z,99563.89
2023-04-11T03:28:14.902Z,99564.38
2023-04-11T03:30:45.874Z,99558.67
2023-04-11T03:33:16.166Z,99559.41
2023-04-11T03:35:42.860Z,99561.83
2023-04-11T03:38:09.755Z,99558.98
2023-04-11T03:40:36.489Z,99559.42
2023-04-11T03:43:10.454Z,99561.90
2023-04-11T03:45:37.311Z,99565.80
2023-04-11T03:48:07.761Z,99568.66
2023-04-11T03:50:46.356Z,99568.26
2023-04-11T03:53:20.404Z,99572.17
2023-04-11T03:55:52.247Z,99565.02
2023-04-11T03:58:19.318Z,99570.11
2023-04-11T04:00:47.007Z,99567.63
2023-04-11T04:03:15.533Z,99565.20
2023-04-11T04:05:42.915Z,99565.84
2023-04-11T04:08:10.246Z,99563.52
2023-04-11T04:10:46.558Z,99556.56
2023-04-11T04:13:13.504Z,99559.06
2023-04-11T04:15:50.894Z,99559.25
2023-04-11T04:18:18.809Z,99550.86
2023-04-11T04:20:47.092Z,99548.61
2023-04-11T04:23:17.454Z,99544.90
2023-04-11T04:25:51.684Z,99537.49
2023-04-11T04:28:25.507Z,99535.42
2023-04-11T04:30:53.913Z,99530.48
2023-04-11T04:33:22.667Z,99527.41
2023-04-11T04:35:57.619Z,99524.09
2023-04-11T04:38:28.370Z,99525.88
2023-04-11T04:40:58.124Z,99522.27
2023-04-11T04:43:26.598Z,99517.61
2023-04-11T04:46:00.178Z,99514.54
2023-04-11T04:48:33.123Z,99517.86
2023-04-11T04:50:59.799Z,99513.09
2023-04-11T04:53:29.952Z,99513.59
2023-04-11T04:56:01.910Z,99504.43
2023-04-11T04:58:30.236Z,99505.89
2023-04-11T05:01:01.896Z,99504.73
2023-04-11T05:03:34.210Z,99503.93
2023-04-11T05:06:02.885Z,99504.10
2023-04-11T05:08:33.928Z,99505.83
2023-04-11T05:11:02.197Z,99502.14
2023-04-11T05:13:33.001Z,99504.34
2023-04-11T05:16:04.737Z,99497.52
2023-04-11T05:18:32.912Z,99495.97
2023-04-11T05:21:00.593Z,99492.89
2023-04-11T05:23:32.549Z,99496.00
2023-04-11T05:26:02.368Z,99491.55
2023-04-11T05:28:31.235Z,99493.38
2023-04-11T05:31:00.203Z,99489.03
2023-04-11T05:33:30.874Z,99490.89
2023-04-11T05:35:58.236Z,99485.75
2023-04-11T05:38:26.162Z,99491.33
2023-04-11T05:40:54.931Z,99490.20
2023-04-11T05:43:21.948Z,99493.15
2023-04-11T05:45:51.635Z,99487.19
2023-04-11T05:48:19.344Z,99488.25
2023-04-11T05:50:51.223Z,99484.95
2023-04-11T05:53:18.218Z,99487.77
2023-04-11T05:55:45.834Z,99488.00
2023-04-11T05:58:17.230Z,99485.68
2023-04-11T06:00:45.548Z,99481.23
2023-04-11T06:03:13.688Z,99483.40
2023-04-11T06:05:40.709Z,99483.17
2023-04-11T06:08:08.135Z,99480.82
2023-04-11T06:10:35.059Z,99479.82
2023-04-11T06:13:08.512Z,99475.29
2023-04-11T06:15:37.486Z,99474.94
2023-04-11T06:18:04.418Z,99476.73
2023-04-11T06:20:36.714Z,99476.98
2023-04-11T06:23:04.122Z,99478.20
2023-04-11T06:25:31.057Z,99475.88
2023-04-11T06:27:58.875Z,99470.25
2023-04-11T06:30:26.114Z,99465.97
2023-04-11T06:32:56.668Z,99467.42
2023-04-11T06:35:24.477Z,99468.20
2023-04-11T06:37:57.531Z,99466.38
2023-04-11T06:40:31.388Z,99467.18
2023-04-11T06:43:01.242Z,99465.50
2023-04-11T06:45:28.668Z,99467.52
2023-04-11T06:47:55.993Z,99466.34
2023-04-11T06:50:23.910Z,99461.89
2023-04-11T06:52:57.833Z,99461.25
2023-04-11T06:55:26.079Z,99456.11
2023-04-11T06:57:53.557Z,99458.27
2023-04-11T07:00:21.126Z,99457.97
2023-04-11T07:02:48.676Z,99454.42
2023-04-11T07:05:16.288Z,99450.55
2023-04-11T07:07:44.962Z,99446.51
2023-04-11T07:10:12.668Z,99440.19
2023-04-11T07:12:45.188Z,99439.43
2023-04-11T07:15:12.750Z,99440.13
2023-04-11T07:17:41.776Z,99439.63
2023-04-11T07:20:10.650Z,99436.16
2023-04-11T07:22:42.888Z,99432.41
2023-04-11T07:25:11.502Z,99430.65
2023-04-11T07:27:44.737Z,99430.27
2023-04-11T07:30:14.184Z,99432.16
2023-04-11T07:33:03.046Z,99429.98
2023-04-11T07:35:40.662Z,99430.69
2023-04-11T07:38:09.880Z,99417.59
2023-04-11T07:40:36.930Z,99413.83
2023-04-11T07:43:06.448Z,99413.88
2023-04-11T07:45:33.806Z,99408.56
2023-04-11T07:48:02.430Z,99400.09
2023-04-11T07:50:29.880Z,99396.98
2023-04-11T07:52:57.442Z,99395.66
2023-04-11T07:55:25.497Z,99400.98
2023-04-11T07:57:54.321Z,99392.55
2023-04-11T08:00:22.526Z,99393.31
2023-04-11T08:02:51.779Z,99391.90
2023-04-11T08:05:19.155Z,99395.52
2023-04-11T08:07:48.588Z,99398.70
2023-04-11T08:10:15.666Z,99389.64
2023-04-11T08:12:42.991Z,99388.83
2023-04-11T08:15:19.550Z,99389.42
2023-04-11T08:17:57.245Z,99385.48
2023-04-11T08:20:25.278Z,99386.25
2023-04-11T08:22:55.434Z,99379.63
2023-04-11T08:25:30.955Z,99376.39
2023-04-11T08:27:59.484Z,99371.60
2023-04-11T08:30:30.561Z,99372.55
2023-04-11T08:33:04.227Z,99373.05
2023-04-11T08:35:32.544Z,99376.10
2023-04-11T08:38:00.178Z,99369.73
2023-04-11T08:40:27.787Z,99371.70
2023-04-11T08:42:58.730Z,99361.68
2023-04-11T08:45:26.634Z,99357.01
2023-04-11T08:47:59.252Z,99351.34
2023-04-11T08:50:27.754Z,99348.48
2023-04-11T08:52:55.759Z,99345.45
2023-04-11T08:55:23.311Z,99346.64
2023-04-11T08:57:50.662Z,99350.25
2023-04-11T09:00:23.606Z,99343.52
2023-04-11T09:03:01.545Z,99338.06
2023-04-11T09:05:34.915Z,99337.39
2023-04-11T09:08:10.955Z,99330.30
2023-04-11T09:10:40.093Z,99334.05
2023-04-11T09:13:20.775Z,99328.00
2023-04-11T09:15:47.931Z,99321.48
2023-04-11T09:18:34.577Z,99317.83
2023-04-11T09:21:07.487Z,99316.64
2023-04-11T09:23:35.406Z,99312.28
2023-04-11T09:26:04.624Z,99313.11
2023-04-11T09:28:51.862Z,99301.28
2023-04-11T09:31:20.123Z,99296.52
2023-04-11T09:33:58.664Z,99297.08
2023-04-11T09:36:28.705Z,99290.02
2023-04-11T09:38:56.871Z,99283.45
2023-04-11T09:41:31.600Z,99277.92
2023-04-11T09:43:58.924Z,99269.03
2023-04-11T09:46:26.360Z,99258.98
2023-04-11T09:48:56.885Z,99266.61
2023-04-11T09:51:35.739Z,99260.42
2023-04-11T09:54:04.474Z,99262.91
2023-04-11T09:56:33.542Z,99257.45
2023-04-11T09:59:01.057Z,99251.88
2023-04-11T10:01:28.393Z,99260.52
2023-04-11T10:03:56.092Z,99255.56
2023-04-11T10:06:33.237Z,99249.66
2023-04-11T10:09:06.449Z,99248.83
2023-04-11T10:11:35.155Z,99248.47
2023-04-11T10:14:02.166Z,99249.66
2023-04-11T10:16:31.814Z,99241.29
2023-04-11T10:19:06.676Z,99242.75
2023-04-11T10:21:37.579Z,99234.69
2023-04-11T10:24:17.168Z,99232.69
2023-04-11T10:26:55.570Z,99229.98
2023-04-11T10:29:30.163Z,99228.01
2023-04-11T10:32:16.676Z,99214.66
2023-04-11T10:35:19.076Z,99218.70
2023-04-11T10:37:48.270Z,99211.50
2023-04-11T10:40:15.507Z,99210.06
2023-04-11T10:42:44.369Z,99209.77
2023-04-11T10:45:31.740Z,99209.62
2023-04-11T10:48:05.337Z,99202.36
2023-04-11T10:50:37.366Z,99201.14
2023-04-11T11:02:50.747Z,99190.08
2023-04-11T11:05:20.027Z,99189.30
2023-04-11T11:07:47.634Z,99191.56
2023-04-11T11:10:15.054Z,99186.80
2023-04-11T11:12:54.185Z,99189.16
2023-04-11T11:15:21.372Z,99186.69
2023-04-11T11:17:49.242Z,99180.43
2023-04-11T11:20:20.765Z,99179.91
2023-04-11T11:22:59.272Z,99181.08
2023-04-11T11:25:27.031Z,99176.01
2023-04-11T11:28:04.201Z,99173.33
2023-04-11T11:30:31.961Z,99169.50
2023-04-11T11:33:21.196Z,99172.08
2023-04-11T11:36:02.582Z,99168.31
2023-04-11T11:38:31.334Z,99165.27
2023-04-11T11:40:58.803Z,99163.05
2023-04-11T11:43:27.385Z,99161.08
2023-04-11T11:46:13.643Z,99164.16
2023-04-11T11:48:42.172Z,99157.16
2023-04-11T11:51:10.232Z,99155.39
2023-04-11T11:53:37.297Z,99147.14
2023-04-11T11:56:13.612Z,99139.89
2023-04-11T11:58:44.176Z,99140.14
2023-04-11T12:03:41.832Z,99138.44
2023-04-11T12:06:10.133Z,99134.04
2023-04-11T12:08:40.874Z,99133.82
2023-04-11T12:11:11.739Z,99128.85
2023-04-11T12:13:40.457Z,99124.20
2023-04-11T12:16:07.471Z,99124.90
2023-04-11T12:18:40.671Z,99120.34
2023-04-11T12:21:08.224Z,99116.02
2023-04-11T12:23:35.113Z,99118.90
2023-04-11T12:30:51.909Z,99099.24
2023-04-11T12:33:20.685Z,99099.77
2023-04-11T12:35:47.905Z,99098.34
2023-04-11T12:38:17.859Z,99097.56
2023-04-11T12:40:46.614Z,99095.10
2023-04-11T12:43:13.748Z,99095.14
2023-04-11T12:45:41.722Z,99089.30
2023-04-11T12:48:09.959Z,99082.77
2023-04-11T12:50:36.985Z,99080.95
2023-04-11T12:53:03.794Z,99077.46
2023-04-11T12:55:30.518Z,99071.79
2023-04-11T12:57:57.252Z,99063.58
2023-04-11T13:00:24.725Z,99057.41
2023-04-11T13:03:11.654Z,99063.08
2023-04-11T13:05:39.367Z,99059.09
2023-04-11T13:08:06.143Z,99054.13
2023-04-11T13:10:32.962Z,99050.55
2023-04-11T13:13:08.334Z,99049.70
2023-04-11T13:15:35.949Z,99051.83
2023-04-11T13:18:02.759Z,99047.87
2023-04-11T13:20:30.085Z,99047.49
2023-04-11T13:22:56.850Z,99053.05
2023-04-11T13:25:23.549Z,99050.08
2023-04-11T13:27:51.022Z,99043.98
2023-04-11T13:30:18.021Z,99041.73
2023-04-11T13:32:46.524Z,99031.27
2023-04-11T13:35:13.289Z,99033.00
2023-04-11T13:37:40.157Z,99030.06
2023-04-11T13:40:08.062Z,99028.24
2023-04-11T13:42:34.860Z,99022.48
2023-04-11T13:45:01.758Z,99023.50
2023-04-11T13:47:28.763Z,99017.38
2023-04-11T13:49:55.495Z,99015.33
2023-04-11T13:52:23.155Z,99017.39
2023-04-11T13:54:54.450Z,99012.58
2023-04-11T13:57:21.607Z,99015.05
2023-04-11T13:59:48.471Z,99010.60
2023-04-11T14:02:15.305Z,99011.13
2023-04-11T14:04:42.311Z,99003.42
2023-04-11T14:07:09.241Z,99004.70
2023-04-11T14:09:36.097Z,98999.59
2023-04-11T14:12:03.631Z,98998.77
2023-04-11T14:14:32.674Z,99002.02
2023-04-11T14:16:59.878Z,99003.75
2023-04-11T14:19:26.784Z,98995.09
2023-04-11T14:21:54.076Z,98994.77
2023-04-11T14:24:21.603Z,98989.05
2023-04-11T14:26:51.580Z,98990.30
2023-04-11T14:29:20.993Z,98982.27
2023-04-11T14:31:49.470Z,98990.98
2023-04-11T14:34:17.925Z,98984.89
2023-04-11T14:36:45.599Z,98987.83
2023-04-11T14:39:12.464Z,98985.14
2023-04-11T14:41:40.412Z,98985.98
2023-04-11T14:44:07.307Z,98980.13
2023-04-11T14:46:35.114Z,98984.30
2023-04-11T14:49:02.044Z,98984.61
2023-04-11T14:51:34.632Z,98984.34
2023-04-11T14:54:01.601Z,98984.90
2023-04-11T14:56:28.560Z,98983.59
2023-04-11T14:58:58.690Z,98980.48
2023-04-11T15:01:26.735Z,98981.96
2023-04-11T15:03:56.486Z,98982.14
2023-04-11T15:06:31.404Z,98974.23
2023-04-11T15:09:01.350Z,98971.66
2023-04-11T15:11:31.341Z,98972.14
2023-04-11T15:14:08.908Z,98969.35
2023-04-11T15:16:41.339Z,98966.94
2023-04-11T15:19:10.380Z,98964.42
2023-04-11T15:21:39.317Z,98959.02
2023-04-11T15:24:11.428Z,98959.70
2023-04-11T15:26:42.360Z,98957.99
2023-04-11T15:29:16.472Z,98958.23
2023-04-11T15:31:45.799Z,98961.08
2023-04-11T15:34:16.166Z,98962.98
2023-04-11T15:36:48.478Z,98956.45
2023-04-11T15:39:17.390Z,98962.83
2023-04-11T15:41:48.423Z,98956.70
2023-04-11T15:44:17.506Z,98960.94
2023-04-11T15:46:49.411Z,98951.84
2023-04-11T15:49:19.435Z,98954.48
2023-04-11T15:51:48.432Z,98953.11
2023-04-11T15:54:16.961Z,98951.01
2023-04-11T15:56:48.637Z,98947.86
2023-04-11T15:59:17.701Z,98944.98
2023-04-11T16:01:48.101Z,98939.23
2023-04-11T16:12:32.506Z,98934.61
2023-04-11T16:15:00.616Z,98932.98
2023-04-11T16:17:31.122Z,98934.24
2023-04-11T16:19:58.420Z,98927.96
2023-04-11T16:22:25.141Z,98927.16
2023-04-11T16:24:55.656Z,98929.73
2023-04-11T16:27:22.857Z,98928.04
2023-04-11T16:29:51.206Z,98927.27
2023-04-11T16:32:18.171Z,98929.64
2023-04-11T16:34:44.925Z,98930.96
2023-04-11T16:37:11.662Z,98933.92
2023-04-11T16:39:39.421Z,98932.96
2023-04-11T16:42:06.221Z,98934.73
2023-04-11T16:44:33.706Z,98935.18
2023-04-11T16:47:00.423Z,98926.47
2023-04-11T16:49:27.254Z,98924.71
2023-04-11T16:51:54.424Z,98917.07
2023-04-11T16:54:26.213Z,98919.06
2023-04-11T16:56:53.225Z,98916.88
2023-04-11T16:59:21.791Z,98916.88
2023-04-11T17:01:48.867Z,98916.07
2023-04-11T17:04:17.170Z,98915.23
2023-04-11T17:06:44.043Z,98914.52
2023-04-11T17:09:11.029Z,98912.83
2023-04-11T17:11:39.019Z,98919.96
2023-04-11T17:14:09.948Z,98917.44
2023-04-11T17:16:37.312Z,98918.48
2023-04-11T17:19:04.108Z,98913.89
2023-04-11T17:21:36.162Z,98913.80
2023-04-11T17:24:03.101Z,98915.36
2023-04-11T17:26:30.154Z,98914.80
2023-04-11T17:28:57.833Z,98912.38
2023-04-11T17:31:26.982Z,98912.44
2023-04-11T17:33:55.303Z,98911.83
2023-04-11T17:36:24.883Z,98914.64
2023-04-11T17:38:54.123Z,98912.95
2023-04-11T17:41:20.940Z,98915.73
2023-04-11T17:43:47.805Z,98918.73
2023-04-11T17:46:14.470Z,98919.11
2023-04-11T17:48:41.625Z,98924.38
2023-04-11T17:51:08.689Z,98928.69
2023-04-11T17:53:35.601Z,98931.09
2023-04-11T17:56:03.947Z,98937.35
2023-04-11T17:58:31.204Z,98937.74
2023-04-11T18:00:57.914Z,98940.39
2023-04-11T18:03:26.533Z,98940.42
2023-04-11T18:05:54.209Z,98942.10
2023-04-11T18:08:39.198Z,98938.92
2023-04-11T18:11:13.169Z,98935.69
2023-04-11T18:13:42.257Z,98931.41
2023-04-11T18:16:11.372Z,98925.54
2023-04-11T18:18:40.801Z,98916.81
2023-04-11T18:21:07.992Z,98917.93
2023-04-11T18:23:37.419Z,98914.05
2023-04-11T18:26:04.443Z,98906.02
2023-04-11T18:28:31.195Z,98905.97
2023-04-11T18:30:57.997Z,98898.90
2023-04-11T18:33:25.476Z,98900.04
2023-04-11T18:35:53.500Z,98896.95
2023-04-11T18:38:20.896Z,98891.34
2023-04-11T18:40:48.846Z,98891.80
2023-04-11T18:43:16.099Z,98892.09
2023-04-11T18:45:43.460Z,98892.47
2023-04-11T18:48:16.567Z,98891.48
2023-04-11T18:50:47.926Z,98887.55
2023-04-11T18:53:14.775Z,98883.60
2023-04-11T18:55:43.645Z,98882.15
2023-04-11T18:58:12.283Z,98875.74
2023-04-11T19:00:48.318Z,98871.46
2023-04-11T19:03:16.066Z,98859.30
2023-04-11T19:05:43.924Z,98854.56
2023-04-11T19:08:21.601Z,98851.11
2023-04-11T19:10:51.651Z,98846.02
2023-04-11T19:13:18.310Z,98843.60
2023-04-11T19:15:45.619Z,98839.85
2023-04-11T19:18:12.435Z,98844.02
2023-04-11T19:20:39.261Z,98838.52
2023-04-11T19:23:12.176Z,98831.22
2023-04-11T19:25:39.263Z,98827.77
2023-04-11T19:28:06.161Z,98825.16
2023-04-11T19:30:34.811Z,98816.45
2023-04-11T19:33:03.259Z,98814.07
2023-04-11T19:35:30.185Z,98810.13
2023-04-11T19:37:58.719Z,98809.48
2023-04-11T19:40:26.824Z,98809.11
2023-04-11T19:42:53.491Z,98806.38
2023-04-11T19:45:21.608Z,98809.27
2023-04-11T19:47:49.105Z,98809.89
2023-04-11T19:50:15.807Z,98806.80
2023-04-11T19:52:43.246Z,98804.25
2023-04-11T19:55:10.580Z,98799.67
2023-04-11T19:57:39.434Z,98799.43
2023-04-11T20:00:13.402Z,98800.59
2023-04-11T20:02:45.113Z,98805.83
2023-04-11T20:05:16.659Z,98801.50
2023-04-11T20:07:44.530Z,98797.42
2023-04-11T20:10:17.697Z,98801.89
2023-04-11T20:12:44.836Z,98794.05
2023-04-11T20:15:11.548Z,98789.04
2023-04-11T20:17:39.193Z,98785.95
2023-04-11T20:20:08.095Z,98775.49
2023-04-11T20:22:37.545Z,98774.44
2023-04-11T20:25:06.761Z,98771.55
2023-04-11T20:42:32.252Z,98775.20
2023-04-11T20:45:09.372Z,98776.00
2023-04-11T20:47:39.882Z,98774.45
2023-04-11T20:50:09.586Z,98770.71
2023-04-11T20:52:36.902Z,98769.68
2023-04-11T20:55:04.783Z,98768.06
2023-04-11T20:57:33.091Z,98760.23
2023-04-11T21:00:07.814Z,98763.02
2023-04-11T21:02:35.128Z,98762.32
2023-04-11T21:05:02.417Z,98766.55
2023-04-11T21:07:35.129Z,98775.11
2023-04-11T21:10:03.928Z,98769.14
2023-04-11T21:12:30.797Z,98768.81
2023-04-11T21:14:58.860Z,98771.66
2023-04-11T21:17:25.626Z,98776.73
2023-04-11T21:19:52.266Z,98773.92
2023-04-11T21:22:20.835Z,98770.80
2023-04-11T21:24:47.755Z,98771.89
2023-04-11T21:27:14.400Z,98770.37
2023-04-11T21:29:41.053Z,98768.80
2023-04-11T21:32:09.418Z,98770.95
2023-04-11T21:34:37.164Z,98767.77
2023-04-11T21:37:04.139Z,98766.11
2023-04-11T21:39:32.882Z,98761.88
2023-04-11T21:42:00.981Z,98757.05
2023-04-11T21:44:27.746Z,98755.19
2023-04-11T21:46:55.648Z,98744.63
2023-04-11T21:49:22.294Z,98740.93
2023-04-11T21:51:52.544Z,98725.88
2023-04-11T21:54:19.194Z,98726.74
2023-04-11T21:56:46.103Z,98721.24
2023-04-11T21:59:15.302Z,98720.09
2023-04-11T22:01:42.716Z,98714.41
2023-04-11T22:04:10.056Z,98711.27
2023-04-11T22:06:38.373Z,98709.04
2023-04-11T22:09:05.125Z,98701.28
2023-04-11T22:11:32.051Z,98701.95
2023-04-11T22:14:00.429Z,98688.42
2023-04-11T22:16:30.936Z,98686.25
2023-04-11T22:18:57.990Z,98683.10
2023-04-11T22:21:38.710Z,98683.55
2023-04-11T22:24:08.794Z,98677.44
2023-04-11T22:26:35.817Z,98673.05
2023-04-11T22:29:04.660Z,98666.92
2023-04-11T22:31:34.396Z,98659.87
2023-04-11T22:34:02.331Z,98659.02
2023-04-11T22:36:35.115Z,98652.77
2023-04-11T22:39:05.269Z,98642.33
2023-04-11T22:41:32.626Z,98639.84
2023-04-11T22:44:02.501Z,98640.92
2023-04-11T22:46:30.298Z,98636.66
2023-04-11T22:48:57.357Z,98637.16
2023-04-11T22:51:24.394Z,98627.94
2023-04-11T22:53:51.110Z,98624.30
2023-04-11T22:56:18.218Z,98618.64
2023-04-11T22:58:45.374Z,98614.66
2023-04-11T23:01:13.873Z,98613.58
2023-04-11T23:03:41.087Z,98611.39
2023-04-11T23:06:08.379Z,98601.68
2023-04-11T23:08:35.247Z,98599.02
2023-04-11T23:11:02.407Z,98595.35
2023-04-11T23:13:31.646Z,98593.55
2023-04-11T23:16:01.644Z,98592.09
2023-04-11T23:18:28.789Z,98585.59
2023-04-11T23:20:55.710Z,98580.56
2023-04-11T23:23:24.900Z,98582.50
2023-04-11T23:25:51.767Z,98580.00
2023-04-11T23:28:18.782Z,98573.80
2023-04-11T23:30:45.886Z,98569.09
2023-04-11T23:33:13.285Z,98559.09
2023-04-11T23:35:42.139Z,98555.61
2023-04-11T23:38:09.979Z,98548.58
2023-04-11T23:40:40.671Z,98542.91
2023-04-11T23:43:08.067Z,98541.95
2023-04-11T23:45:34.976Z,98539.67
2023-04-11T23:48:02.038Z,98535.23
2023-04-11T23:50:28.948Z,98537.55
2023-04-11T23:52:55.572Z,98538.20
2023-04-11T23:55:22.190Z,98537.57
2023-04-11T23:57:49.131Z,98538.54
